createdAt,value
2023-05-14T00:00:11.893Z,74.45
2023-05-14T00:04:33.865Z,75.63
2023-05-14T00:08:55.646Z,75.65
2023-05-14T00:13:18.933Z,77.01
2023-05-14T00:17:40.779Z,76.12
2023-05-14T00:22:02.525Z,76.33
2023-05-14T00:26:24.347Z,75.09
2023-05-14T00:30:47.471Z,75.25
2023-05-14T00:35:09.755Z,75.23
2023-05-14T00:39:31.511Z,75.47
2023-05-14T00:43:53.223Z,76.12
2023-05-14T00:48:16.803Z,75.78
2023-05-14T00:52:39.022Z,76.20
2023-05-14T00:57:01.043Z,76.87
2023-05-14T01:01:22.978Z,79.10
2023-05-14T01:05:56.065Z,80.95
2023-05-14T01:10:28.706Z,80.79
2023-05-14T01:14:56.729Z,80.69
2023-05-14T01:19:26.133Z,80.60
2023-05-14T01:23:49.429Z,80.32
2023-05-14T01:28:15.466Z,79.17
2023-05-14T01:32:39.602Z,79.88
2023-05-14T01:37:02.651Z,79.18
2023-05-14T01:41:26.376Z,79.55
2023-05-14T01:45:48.351Z,80.62
2023-05-14T01:50:11.087Z,79.97
2023-05-14T01:54:32.805Z,79.76
2023-05-14T01:58:55.885Z,79.82
2023-05-14T02:03:17.605Z,80.72
2023-05-14T02:07:39.621Z,79.53
2023-05-14T02:12:01.360Z,79.75
2023-05-14T02:16:26.794Z,80.11
2023-05-14T02:20:48.600Z,79.80
2023-05-14T02:25:10.700Z,79.99
2023-05-14T02:29:32.555Z,80.91
2023-05-14T02:33:55.665Z,81.84
2023-05-14T02:38:17.605Z,80.79
2023-05-14T02:42:39.464Z,80.83
2023-05-14T02:47:01.354Z,82.12
2023-05-14T02:51:24.433Z,82.85
2023-05-14T02:55:46.165Z,82.33
2023-05-14T03:00:09.076Z,81.93
2023-05-14T03:04:31.505Z,82.48
2023-05-14T03:08:54.552Z,82.92
2023-05-14T03:13:16.341Z,83.45
2023-05-14T03:17:38.068Z,82.33
2023-05-14T03:22:00.162Z,82.05
2023-05-14T03:26:23.248Z,81.54
2023-05-14T03:30:45.057Z,81.15
2023-05-14T03:35:07.857Z,80.75
2023-05-14T03:39:29.646Z,81.62
2023-05-14T03:43:52.751Z,82.27
2023-05-14T03:48:14.567Z,81.14
2023-05-14T03:52:36.406Z,81.22
2023-05-14T03:56:58.156Z,80.21
2023-05-14T04:01:21.348Z,80.02
2023-05-14T04:05:43.223Z,79.93
2023-05-14T04:10:06.147Z,79.82
2023-05-14T04:14:27.993Z,80.98
2023-05-14T04:18:51.557Z,81.77
2023-05-14T04:23:13.340Z,81.46
2023-05-14T04:27:35.654Z,80.66
2023-05-14T04:31:57.466Z,80.42
2023-05-14T04:36:20.621Z,80.16
2023-05-14T04:40:42.401Z,80.16
2023-05-14T04:45:04.905Z,80.08
2023-05-14T04:49:26.860Z,79.48
2023-05-14T04:53:49.966Z,79.55
2023-05-14T04:58:11.709Z,79.02
2023-05-14T05:02:33.475Z,78.68
2023-05-14T05:06:55.305Z,78.17
2023-05-14T05:11:18.440Z,78.66
2023-05-14T05:15:40.230Z,76.99
2023-05-14T05:20:02.344Z,67.81
2023-05-14T05:24:24.161Z,61.94
2023-05-14T05:28:47.217Z,56.68
2023-05-14T05:33:09.090Z,53.10
2023-05-14T05:37:30.970Z,48.62
2023-05-14T05:41:54.147Z,46.39
2023-05-14T05:46:17.240Z,45.85
2023-05-14T05:50:39.033Z,43.95
2023-05-14T05:55:00.765Z,43.44
2023-05-14T05:59:22.558Z,46.60
2023-05-14T06:03:48.225Z,45.77
2023-05-14T06:08:10.698Z,49.85
2023-05-14T06:12:32.489Z,53.40
2023-05-14T06:16:54.299Z,52.04
2023-05-14T06:21:17.479Z,46.17
2023-05-14T06:25:39.226Z,38.50
2023-05-14T06:30:00.989Z,37.74
2023-05-14T06:34:22.844Z,37.45
2023-05-14T06:38:46.204Z,35.79
2023-05-14T06:43:07.919Z,35.71
2023-05-14T06:47:29.711Z,35.86
2023-05-14T06:51:51.526Z,35.95
2023-05-14T06:56:14.891Z,36.67
2023-05-14T07:00:36.716Z,36.07
2023-05-14T07:04:58.522Z,36.09
2023-05-14T07:09:20.289Z,34.30
2023-05-14T07:13:43.383Z,35.38
2023-05-14T07:18:05.278Z,34.42
2023-05-14T07:22:27.072Z,33.94
2023-05-14T07:26:48.969Z,33.15
2023-05-14T07:31:12.161Z,33.57
2023-05-14T07:35:34.165Z,32.36
2023-05-14T07:39:55.903Z,32.92
2023-05-14T07:44:17.735Z,32.33
2023-05-14T07:48:40.887Z,31.71
2023-05-14T07:53:02.733Z,31.14
2023-05-14T07:57:24.458Z,30.44
2023-05-14T08:01:46.204Z,30.86
2023-05-14T08:06:09.319Z,30.39
2023-05-14T08:10:31.104Z,31.94
2023-05-14T08:14:53.034Z,32.71
2023-05-14T08:19:15.984Z,36.65
2023-05-14T08:23:39.059Z,38.52
2023-05-14T08:28:00.809Z,40.93
2023-05-14T08:32:23.728Z,41.85
2023-05-14T08:36:45.952Z,42.91
2023-05-14T08:41:10.038Z,42.46
2023-05-14T08:45:33.289Z,43.57
2023-05-14T08:50:00.842Z,43.62
2023-05-14T08:54:23.288Z,44.72
2023-05-14T08:58:46.371Z,43.58
2023-05-14T09:03:08.480Z,46.38
2023-05-14T09:07:30.410Z,43.81
2023-05-14T09:11:53.677Z,43.85
2023-05-14T09:16:18.766Z,44.07
2023-05-14T09:20:40.996Z,43.99
2023-05-14T09:25:04.785Z,42.59
2023-05-14T09:29:29.020Z,42.21
2023-05-14T09:33:52.790Z,42.02
2023-05-14T09:38:14.735Z,42.18
2023-05-14T09:42:36.481Z,41.69
2023-05-14T09:46:58.406Z,40.33
2023-05-14T09:51:21.547Z,41.30
2023-05-14T09:55:43.331Z,39.93
2023-05-14T10:00:06.267Z,36.53
2023-05-14T10:04:28.169Z,36.03
2023-05-14T10:08:55.567Z,36.82
2023-05-14T10:13:22.030Z,36.49
2023-05-14T10:17:49.048Z,36.17
2023-05-14T10:22:14.855Z,41.28
2023-05-14T10:26:40.386Z,38.87
2023-05-14T10:31:02.299Z,38.17
2023-05-14T10:35:24.156Z,39.29
2023-05-14T10:39:47.414Z,39.17
2023-05-14T10:44:11.490Z,40.13
2023-05-14T10:48:34.181Z,40.25
2023-05-14T10:52:56.147Z,39.49
2023-05-14T10:57:19.111Z,36.39
2023-05-14T11:01:42.905Z,34.92
2023-05-14T11:06:06.177Z,33.92
2023-05-14T11:10:27.988Z,36.29
2023-05-14T11:14:50.653Z,35.77
2023-05-14T11:19:13.913Z,34.80
2023-05-14T11:23:35.979Z,33.49
2023-05-14T11:27:58.125Z,32.06
2023-05-14T11:32:20.393Z,33.12
2023-05-14T11:36:43.569Z,36.41
2023-05-14T11:41:05.370Z,37.56
2023-05-14T11:45:27.733Z,37.95
2023-05-14T11:49:49.742Z,37.54
2023-05-14T11:54:13.841Z,37.64
2023-05-14T11:58:35.597Z,34.72
2023-05-14T12:02:57.440Z,32.43
2023-05-14T12:07:19.554Z,30.97
2023-05-14T12:11:42.655Z,29.83
2023-05-14T12:16:04.900Z,29.72
2023-05-14T12:20:29.390Z,27.30
2023-05-14T12:24:54.570Z,28.04
2023-05-14T12:29:17.720Z,28.70
2023-05-14T12:33:39.444Z,29.61
2023-05-14T12:38:01.190Z,30.33
2023-05-14T12:42:22.938Z,31.08
2023-05-14T12:46:46.042Z,33.60
2023-05-14T12:51:07.863Z,33.28
2023-05-14T12:55:29.723Z,34.57
2023-05-14T12:59:51.501Z,34.53
2023-05-14T13:04:14.684Z,33.45
2023-05-14T13:08:36.490Z,33.16
2023-05-14T13:12:58.248Z,32.01
2023-05-14T13:17:20.018Z,29.61
2023-05-14T13:21:43.121Z,31.04
2023-05-14T13:26:04.922Z,30.77
2023-05-14T13:30:26.766Z,32.93
2023-05-14T13:34:48.570Z,30.86
2023-05-14T13:39:12.693Z,30.51
2023-05-14T13:43:35.940Z,30.64
2023-05-14T13:47:57.698Z,29.90
2023-05-14T13:52:19.565Z,28.75
2023-05-14T13:56:42.631Z,29.74
2023-05-14T14:01:05.538Z,29.12
2023-05-14T14:05:27.526Z,30.04
2023-05-14T14:09:49.376Z,30.44
2023-05-14T14:14:12.633Z,29.33
2023-05-14T14:18:34.433Z,29.69
2023-05-14T14:22:56.386Z,30.80
2023-05-14T14:27:19.128Z,29.17
2023-05-14T14:31:42.238Z,29.47
2023-05-14T14:36:04.633Z,28.97
2023-05-14T14:40:26.442Z,29.22
2023-05-14T14:44:48.178Z,30.69
2023-05-14T14:49:11.337Z,30.86
2023-05-14T14:58:24.489Z,28.50
2023-05-14T15:04:28.119Z,29.32
2023-05-14T15:08:29.545Z,29.21
2023-05-14T15:12:30.997Z,29.25
2023-05-14T15:16:32.455Z,30.92
2023-05-14T15:20:35.256Z,30.54
2023-05-14T15:24:36.732Z,30.46
2023-05-14T15:28:38.189Z,29.63
2023-05-14T15:32:39.714Z,29.71
2023-05-14T15:36:42.472Z,30.55
2023-05-14T15:40:43.895Z,30.52
2023-05-14T15:44:45.302Z,30.38
2023-05-14T15:48:46.705Z,31.49
2023-05-14T15:52:49.570Z,29.59
2023-05-14T15:56:51.002Z,32.00
2023-05-14T16:00:52.386Z,30.69
2023-05-14T16:04:53.792Z,30.24
2023-05-14T16:08:56.568Z,32.01
2023-05-14T16:12:57.935Z,31.01
2023-05-14T16:16:59.386Z,31.94
2023-05-14T16:21:00.758Z,31.75
2023-05-14T16:25:03.966Z,32.59
2023-05-14T16:29:05.548Z,32.83
2023-05-14T16:33:07.120Z,32.88
2023-05-14T16:37:09.650Z,33.83
2023-05-14T16:41:13.597Z,34.31
2023-05-14T16:45:15.125Z,34.15
2023-05-14T16:49:16.535Z,35.92
2023-05-14T16:53:17.934Z,34.64
2023-05-14T16:57:20.656Z,35.48
2023-05-14T17:01:22.159Z,35.91
2023-05-14T17:05:23.857Z,36.39
2023-05-14T17:09:25.419Z,36.04
2023-05-14T17:13:28.152Z,36.14
2023-05-14T17:17:29.593Z,36.21
2023-05-14T17:21:31.041Z,36.28
2023-05-14T17:25:32.489Z,37.12
2023-05-14T17:29:35.231Z,37.54
2023-05-14T17:33:36.640Z,38.02
2023-05-14T17:37:38.098Z,38.54
2023-05-14T17:41:39.695Z,38.55
2023-05-14T17:45:52.954Z,39.08
2023-05-14T17:49:55.618Z,40.07
2023-05-14T17:53:57.083Z,41.52
2023-05-14T17:57:58.721Z,40.51
2023-05-14T18:02:01.458Z,41.83
2023-05-14T18:06:03.292Z,41.31
2023-05-14T18:10:05.815Z,41.09
2023-05-14T18:14:07.279Z,42.42
2023-05-14T18:18:10.354Z,42.83
2023-05-14T18:22:11.883Z,43.20
2023-05-14T18:26:13.328Z,43.09
2023-05-14T18:30:15.627Z,43.21
2023-05-14T18:34:18.415Z,42.58
2023-05-14T18:38:19.770Z,42.87
2023-05-14T18:42:21.164Z,42.48
2023-05-14T18:46:22.646Z,43.14
2023-05-14T18:50:25.481Z,42.24
2023-05-14T18:54:26.919Z,42.90
2023-05-14T18:58:28.301Z,42.88
2023-05-14T19:02:29.943Z,43.34
2023-05-14T19:06:32.781Z,44.00
2023-05-14T19:10:34.205Z,45.64
2023-05-14T19:14:35.572Z,45.42
2023-05-14T19:18:37.177Z,45.68
2023-05-14T19:22:39.978Z,45.16
2023-05-14T19:26:41.576Z,44.11
2023-05-14T19:30:42.979Z,43.94
2023-05-14T19:34:44.371Z,47.38
2023-05-14T19:38:47.521Z,50.35
2023-05-14T19:42:48.945Z,55.46
2023-05-14T19:46:50.993Z,67.25
2023-05-14T19:50:52.633Z,68.16
2023-05-14T19:54:55.428Z,72.66
2023-05-14T19:58:57.533Z,73.20
2023-05-14T20:02:59.284Z,74.04
2023-05-14T20:07:00.989Z,71.83
2023-05-14T20:11:03.973Z,72.65
2023-05-14T20:15:06.146Z,74.23
2023-05-14T20:19:07.736Z,75.47
2023-05-14T20:23:09.271Z,76.86
2023-05-14T20:27:12.370Z,75.13
2023-05-14T20:31:13.866Z,76.05
2023-05-14T20:35:15.392Z,76.78
2023-05-14T20:39:17.269Z,76.13
2023-05-14T20:43:20.087Z,77.54
2023-05-14T20:47:24.656Z,77.27
2023-05-14T20:51:26.357Z,77.88
2023-05-14T20:55:28.167Z,77.88
2023-05-14T20:59:31.120Z,78.61
2023-05-14T21:03:32.664Z,78.42
2023-05-14T21:07:34.361Z,78.44
2023-05-14T21:11:35.862Z,78.96
2023-05-14T21:15:38.836Z,77.72
2023-05-14T21:19:40.292Z,78.15
2023-05-14T21:23:41.850Z,78.91
2023-05-14T21:27:43.453Z,79.08
2023-05-14T21:31:46.504Z,79.04
2023-05-14T21:35:48.011Z,79.58
2023-05-14T21:39:49.504Z,78.96
2023-05-14T21:43:51.003Z,79.48
2023-05-14T21:47:53.945Z,78.64
2023-05-14T21:51:55.374Z,78.75
2023-05-14T21:55:56.992Z,77.86
2023-05-14T21:59:58.495Z,77.91
2023-05-14T22:04:01.263Z,78.37
2023-05-14T22:08:02.743Z,78.11
2023-05-14T22:12:04.848Z,78.82
2023-05-14T22:16:12.578Z,78.48
2023-05-14T22:20:16.664Z,77.61
2023-05-14T22:24:18.319Z,77.65
2023-05-14T22:28:19.998Z,77.75
2023-05-14T22:32:21.469Z,77.72
2023-05-14T22:36:24.242Z,78.98
2023-05-14T22:40:25.664Z,79.48
2023-05-14T22:44:29.646Z,79.38
2023-05-14T22:48:31.383Z,78.69
2023-05-14T22:52:34.158Z,77.86
2023-05-14T22:56:35.754Z,79.42
2023-05-14T23:00:37.318Z,78.99
2023-05-14T23:04:38.864Z,80.44
2023-05-14T23:08:41.736Z,79.46
2023-05-14T23:12:43.143Z,80.32
2023-05-14T23:16:44.726Z,80.02
2023-05-14T23:20:46.182Z,80.26
2023-05-14T23:24:49.065Z,78.44
2023-05-14T23:28:50.486Z,78.80
2023-05-14T23:32:52.096Z,79.51
2023-05-14T23:36:53.942Z,79.23
2023-05-14T23:40:56.678Z,79.15
2023-05-14T23:44:58.178Z,79.41
2023-05-14T23:48:59.779Z,80.77
2023-05-14T23:53:01.430Z,79.91
2023-05-14T23:57:04.640Z,80.13
